createdAt,value
2019-01-02T07:41:25.426Z,1029.05
2019-01-02T07:42:25.402Z,1029.02
2019-01-02T07:43:25.396Z,1029.06
2019-01-02T07:44:25.385Z,1029.10
2019-01-02T07:45:25.384Z,1029.04
2019-01-02T07:46:25.355Z,1029.03
2019-01-02T07:47:25.358Z,1029.11
2019-01-02T07:48:25.336Z,1029.06
2019-01-02T07:49:25.338Z,1029.06
2019-01-02T07:50:25.342Z,1029.08
2019-01-02T07:51:25.305Z,1029.10
2019-01-02T07:52:25.324Z,1029.19
2019-01-02T07:53:25.348Z,1029.21
2019-01-02T07:54:25.277Z,1029.24
2019-01-02T07:55:25.283Z,1029.19
2019-01-02T07:56:25.252Z,1029.23
2019-01-02T07:57:25.239Z,1029.30
2019-01-02T07:58:25.242Z,1029.23
2019-01-02T07:59:25.218Z,1029.21
2019-01-02T08:00:25.246Z,1029.22
2019-01-02T08:01:25.207Z,1029.26
2019-01-02T08:02:25.669Z,1029.23
2019-01-02T08:03:25.178Z,1029.22
2019-01-02T08:04:25.169Z,1029.24
2019-01-02T08:05:25.162Z,1029.14
2019-01-02T08:06:25.165Z,1029.19
2019-01-02T08:07:25.136Z,1029.34
2019-01-02T08:08:25.127Z,1029.33
2019-01-02T08:09:25.116Z,1029.33
2019-01-02T08:10:25.103Z,1029.36
2019-01-02T08:11:25.117Z,1029.30
2019-01-02T08:12:25.086Z,1029.38
2019-01-02T08:13:25.083Z,1029.28
2019-01-02T08:14:25.059Z,1029.30
2019-01-02T08:15:25.052Z,1029.30
2019-01-02T08:16:25.058Z,1029.30
2019-01-02T08:17:25.032Z,1029.26
2019-01-02T08:18:25.019Z,1029.24
2019-01-02T08:19:25.025Z,1029.30
2019-01-02T08:20:24.999Z,1029.35
2019-01-02T08:21:25.005Z,1029.41
2019-01-02T08:22:24.981Z,1029.36
2019-01-02T08:23:24.979Z,1029.40
2019-01-02T08:24:25.182Z,1029.38
2019-01-02T08:25:25.159Z,1029.37
2019-01-02T08:26:25.070Z,1029.42
2019-01-02T08:27:24.942Z,1029.41
2019-01-02T08:28:24.914Z,1029.41
2019-01-02T08:29:24.916Z,1029.44
2019-01-02T08:30:24.901Z,1029.45
2019-01-02T08:31:24.907Z,1029.48
2019-01-02T08:33:41.018Z,1029.37
2019-01-02T08:34:40.919Z,1029.38
2019-01-02T08:35:41.910Z,1029.32
2019-01-02T08:36:40.937Z,1029.35
2019-01-02T08:37:40.835Z,1029.39
2019-01-02T08:38:40.842Z,1029.44
2019-01-02T08:39:40.855Z,1029.44
2019-01-02T08:40:40.856Z,1029.44
2019-01-02T08:41:40.963Z,1029.46
2019-01-02T08:42:40.781Z,1029.43
2019-01-02T08:43:40.774Z,1029.48
2019-01-02T08:44:40.777Z,1029.52
2019-01-02T08:45:40.788Z,1029.46
2019-01-02T08:46:40.920Z,1029.46
2019-01-02T08:47:40.799Z,1029.45
2019-01-02T08:48:40.704Z,1029.46
2019-01-02T08:49:40.731Z,1029.46
2019-01-02T08:50:40.717Z,1029.44
2019-01-02T08:51:40.833Z,1029.40
2019-01-02T08:52:40.725Z,1029.42
2019-01-02T08:53:40.734Z,1029.45
2019-01-02T08:54:40.795Z,1029.41
2019-01-02T08:55:40.664Z,1029.48
2019-01-02T08:56:40.753Z,1029.45
2019-01-02T08:57:40.662Z,1029.49
2019-01-02T08:58:40.661Z,1029.54
2019-01-02T08:59:40.686Z,1029.53
2019-01-02T09:00:40.684Z,1029.50
2019-01-02T09:01:40.679Z,1029.49
2019-01-02T09:02:40.591Z,1029.56
2019-01-02T09:03:40.615Z,1029.63
2019-01-02T09:04:40.610Z,1029.62
2019-01-02T09:05:40.632Z,1029.62
2019-01-02T09:06:40.620Z,1029.69
2019-01-02T09:07:40.635Z,1029.66
2019-01-02T09:08:40.521Z,1029.70
2019-01-02T09:09:40.529Z,1029.74
2019-01-02T09:10:40.539Z,1029.76
2019-01-02T09:11:40.547Z,1029.79
2019-01-02T09:12:40.647Z,1029.80
2019-01-02T09:13:40.449Z,1029.85
2019-01-02T09:14:40.461Z,1029.84
2019-01-02T09:15:40.472Z,1029.80
2019-01-02T09:16:40.471Z,1029.76
2019-01-02T09:17:40.578Z,1029.79
2019-01-02T09:18:40.488Z,1029.85
2019-01-02T09:19:40.390Z,1029.75
2019-01-02T09:20:40.396Z,1029.76
2019-01-02T09:21:40.406Z,1029.79
2019-01-02T09:22:40.512Z,1029.80
2019-01-02T09:23:40.408Z,1029.80
2019-01-02T09:24:40.418Z,1029.79
2019-01-02T09:25:40.320Z,1029.84
2019-01-02T09:26:40.331Z,1029.91
2019-01-02T09:27:40.448Z,1029.96
2019-01-02T09:28:40.348Z,1029.94
2019-01-02T09:29:40.346Z,1029.95
2019-01-02T09:30:40.352Z,1029.99
2019-01-02T09:31:40.258Z,1029.97
2019-01-02T09:32:40.370Z,1030.01
2019-01-02T09:33:40.271Z,1029.99
2019-01-02T09:34:40.278Z,1030.06
2019-01-02T09:35:40.293Z,1030.03
2019-01-02T09:36:40.287Z,1030.05
2019-01-02T09:37:40.197Z,1030.10
2019-01-02T09:38:40.299Z,1030.05
2019-01-02T09:39:40.206Z,1030.03
2019-01-02T09:40:40.300Z,1030.07
2019-01-02T09:41:40.223Z,1030.08
2019-01-02T09:42:40.223Z,1030.00
2019-01-02T09:43:40.330Z,1030.04
2019-01-02T09:44:40.133Z,1030.09
2019-01-02T09:45:40.151Z,1030.03
2019-01-02T09:46:40.146Z,1029.98
2019-01-02T09:47:40.158Z,1030.00
2019-01-02T09:48:40.281Z,1030.01
2019-01-02T09:49:40.165Z,1030.04
2019-01-02T09:50:40.071Z,1030.07
2019-01-02T09:51:40.077Z,1029.98
2019-01-02T09:52:40.084Z,1029.95
2019-01-02T09:53:40.189Z,1030.03
2019-01-02T09:54:40.096Z,1029.98
2019-01-02T09:55:40.109Z,1030.05
2019-01-02T09:56:40.003Z,1030.03
2019-01-02T09:57:40.014Z,1030.09
2019-01-02T09:58:40.124Z,1030.08
2019-01-02T09:59:40.028Z,1030.10
2019-01-02T10:00:40.039Z,1030.08
2019-01-02T10:01:40.040Z,1030.09
2019-01-02T10:02:39.940Z,1030.03
2019-01-02T10:03:40.155Z,1030.05
2019-01-02T10:04:39.956Z,1030.08
2019-01-02T10:05:39.975Z,1030.08
2019-01-02T10:06:39.968Z,1030.04
2019-01-02T10:07:39.974Z,1029.99
2019-01-02T10:08:39.879Z,1030.01
2019-01-02T10:09:39.984Z,1029.99
2019-01-02T10:10:39.891Z,1030.06
2019-01-02T10:11:39.897Z,1030.06
2019-01-02T10:12:39.903Z,1029.97
2019-01-02T10:13:39.908Z,1030.02
2019-01-02T10:14:39.914Z,1030.02
2019-01-02T10:15:39.826Z,1030.05
2019-01-02T10:16:39.828Z,1029.99
2019-01-02T10:17:39.830Z,1030.05
2019-01-02T10:18:39.859Z,1030.01
2019-01-02T10:19:39.953Z,1030.01
2019-01-02T10:20:43.841Z,1030.01
2019-01-02T10:21:39.752Z,1030.00
2019-01-02T10:22:39.758Z,1029.99
2019-01-02T10:23:39.765Z,1030.03
2019-01-02T10:24:39.883Z,1030.01
2019-01-02T10:25:39.777Z,1029.99
2019-01-02T10:26:39.685Z,1029.91
2019-01-02T10:27:39.702Z,1029.96
2019-01-02T10:28:39.694Z,1029.90
2019-01-02T10:29:39.806Z,1029.98
2019-01-02T10:30:39.707Z,1029.92
2019-01-02T10:31:39.713Z,1029.88
2019-01-02T10:32:39.621Z,1029.80
2019-01-02T10:33:39.622Z,1029.87
2019-01-02T10:34:39.634Z,1029.79
2019-01-02T10:35:39.749Z,1029.84
2019-01-02T10:36:39.644Z,1029.84
2019-01-02T10:37:39.648Z,1029.80
2019-01-02T10:38:39.558Z,1029.87
2019-01-02T10:39:39.559Z,1029.77
2019-01-02T10:40:39.672Z,1029.71
2019-01-02T10:41:39.576Z,1029.86
2019-01-02T10:42:39.578Z,1029.75
2019-01-02T10:43:39.583Z,1029.73
2019-01-02T10:44:39.498Z,1029.75
2019-01-02T10:45:39.596Z,1029.84
2019-01-02T10:46:39.507Z,1029.84
2019-01-02T10:47:39.508Z,1029.84
2019-01-02T10:48:39.513Z,1029.85
2019-01-02T10:49:39.519Z,1029.79
2019-01-02T10:50:39.533Z,1029.83
2019-01-02T10:51:39.439Z,1029.90
2019-01-02T10:52:39.438Z,1029.84
2019-01-02T10:53:39.445Z,1029.88
2019-01-02T10:54:39.450Z,1029.83
2019-01-02T10:55:39.560Z,1029.89
2019-01-02T10:56:39.358Z,1029.96
2019-01-02T10:57:39.365Z,1029.94
2019-01-02T10:58:39.372Z,1029.93
2019-01-02T10:59:39.430Z,1029.89
2019-01-02T11:00:39.390Z,1029.95
2019-01-02T11:01:39.390Z,1029.95
2019-01-02T11:02:39.309Z,1029.93
2019-01-02T11:03:39.301Z,1029.97
2019-01-02T11:04:39.308Z,1029.95
2019-01-02T11:05:39.317Z,1030.00
2019-01-02T11:06:39.424Z,1029.95
2019-01-02T11:07:39.229Z,1029.87
2019-01-02T11:08:39.253Z,1029.87
2019-01-02T11:09:39.244Z,1029.92
2019-01-02T11:10:39.242Z,1029.93
2019-01-02T11:11:39.351Z,1029.93
2019-01-02T11:12:39.262Z,1029.93
2019-01-02T11:13:39.160Z,1029.99
2019-01-02T11:14:39.167Z,1030.00
2019-01-02T11:15:39.182Z,1030.01
2019-01-02T11:16:39.281Z,1030.01
2019-01-02T11:17:39.188Z,1030.02
2019-01-02T11:18:39.190Z,1030.03
2019-01-02T11:19:39.102Z,1030.07
2019-01-02T11:20:39.104Z,1030.09
2019-01-02T11:21:39.211Z,1030.11
2019-01-02T11:22:39.117Z,1030.17
2019-01-02T11:23:39.124Z,1030.18
2019-01-02T11:24:39.126Z,1030.18
2019-01-02T11:25:39.041Z,1030.19
2019-01-02T11:26:39.140Z,1030.22
2019-01-02T11:27:39.047Z,1030.16
2019-01-02T11:28:39.051Z,1030.15
2019-01-02T11:29:39.055Z,1030.15
2019-01-02T11:30:39.064Z,1030.16
2019-01-02T11:31:39.071Z,1030.22
2019-01-02T11:32:38.974Z,1030.19
2019-01-02T11:33:38.982Z,1030.22
2019-01-02T11:34:38.999Z,1030.21
2019-01-02T11:35:38.995Z,1030.17
2019-01-02T11:36:39.100Z,1030.16
2019-01-02T11:37:38.901Z,1030.10
2019-01-02T11:38:38.908Z,1030.09
2019-01-02T11:39:38.919Z,1030.08
2019-01-02T11:40:38.925Z,1030.04
2019-01-02T11:41:38.970Z,1030.05
2019-01-02T11:42:39.041Z,1030.10
2019-01-02T11:43:38.840Z,1030.00
2019-01-02T11:44:38.845Z,1030.04
2019-01-02T11:45:38.855Z,1030.00
2019-01-02T11:46:38.858Z,1030.00
2019-01-02T11:47:38.964Z,1030.05
2019-01-02T11:48:38.880Z,1030.01
2019-01-02T11:49:38.778Z,1029.99
2019-01-02T11:50:38.786Z,1030.00
2019-01-02T11:51:38.786Z,1029.97
2019-01-02T11:52:38.896Z,1029.95
2019-01-02T11:53:38.800Z,1029.97
2019-01-02T11:54:38.803Z,1029.93
2019-01-02T11:55:38.710Z,1029.91
2019-01-02T11:56:38.721Z,1029.97
2019-01-02T11:57:38.823Z,1029.99
2019-01-02T11:58:38.726Z,1029.98
2019-01-02T11:59:38.734Z,1029.98
2019-01-02T12:00:38.742Z,1030.08
2019-01-02T12:01:38.654Z,1030.00
2019-01-02T12:02:38.752Z,1029.97
2019-01-02T12:03:38.656Z,1029.95
2019-01-02T12:04:38.670Z,1029.96
2019-01-02T12:05:38.668Z,1029.90
2019-01-02T12:06:38.676Z,1029.98
2019-01-02T12:07:38.584Z,1029.97
2019-01-02T12:08:38.693Z,1029.95
2019-01-02T12:09:38.599Z,1030.00
2019-01-02T12:10:38.601Z,1030.01
2019-01-02T12:11:38.609Z,1029.98
2019-01-02T12:12:38.615Z,1030.02
2019-01-02T12:13:38.622Z,1030.00
2019-01-02T12:14:38.529Z,1029.97
2019-01-02T12:15:38.535Z,1029.98
2019-01-02T12:16:38.536Z,1030.01
2019-01-02T12:17:38.544Z,1029.99
2019-01-02T12:18:38.547Z,1030.03
2019-01-02T12:19:38.458Z,1029.93
2019-01-02T12:20:38.460Z,1030.03
2019-01-02T12:21:38.463Z,1029.97
2019-01-02T12:22:38.474Z,1029.94
2019-01-02T12:23:38.900Z,1030.03
2019-01-02T12:24:38.386Z,1029.99
2019-01-02T12:25:38.388Z,1029.99
2019-01-02T12:26:38.407Z,1030.02
2019-01-02T12:27:38.451Z,1030.04
2019-01-02T12:28:38.507Z,1030.01
2019-01-02T12:29:38.413Z,1030.05
2019-01-02T12:30:38.374Z,1030.00
2019-01-02T12:31:38.332Z,1030.00
2019-01-02T12:32:38.327Z,1029.92
2019-01-02T12:33:38.439Z,1030.01
2019-01-02T12:34:38.356Z,1030.02
2019-01-02T12:35:38.348Z,1030.00
2019-01-02T12:36:38.251Z,1029.99
2019-01-02T12:37:38.269Z,1030.00
2019-01-02T12:38:38.376Z,1029.94
2019-01-02T12:39:38.273Z,1029.98
2019-01-02T12:40:38.277Z,1030.03
2019-01-02T12:41:38.282Z,1030.00
2019-01-02T12:42:38.191Z,1030.00
2019-01-02T12:43:38.211Z,1029.92
2019-01-02T12:44:38.312Z,1029.96
2019-01-02T12:45:38.211Z,1029.98
2019-01-02T12:46:38.230Z,1029.93
2019-01-02T12:47:38.224Z,1029.91
2019-01-02T12:48:38.127Z,1029.95
2019-01-02T12:49:38.254Z,1029.88
2019-01-02T12:50:38.137Z,1029.97
2019-01-02T12:51:38.146Z,1029.99
2019-01-02T12:52:38.147Z,1029.99
2019-01-02T12:53:43.531Z,1030.05
2019-01-02T12:54:39.187Z,1030.08
2019-01-02T12:55:38.068Z,1030.06
2019-01-02T12:56:38.070Z,1030.07
2019-01-02T12:57:38.076Z,1030.04
2019-01-02T12:58:38.084Z,1030.09
2019-01-02T12:59:38.194Z,1030.07
2019-01-02T13:00:38.003Z,1030.08
2019-01-02T13:01:38.015Z,1030.06
2019-01-02T13:02:38.009Z,1030.08
2019-01-02T13:03:38.013Z,1030.13
2019-01-02T13:04:38.119Z,1030.11
2019-01-02T13:05:38.024Z,1030.13
2019-01-02T13:06:37.927Z,1030.16
2019-01-02T13:07:44.415Z,1030.13
2019-01-02T13:08:38.973Z,1030.18
2019-01-02T13:09:38.058Z,1030.17
2019-01-02T13:10:37.960Z,1030.21
2019-01-02T13:11:37.962Z,1030.16
2019-01-02T13:12:37.868Z,1030.16
2019-01-02T13:13:37.887Z,1030.22
2019-01-02T13:14:37.979Z,1030.13
2019-01-02T13:15:37.883Z,1030.15
2019-01-02T13:16:37.889Z,1030.14
2019-01-02T13:17:37.901Z,1030.16
2019-01-02T13:18:37.803Z,1030.18
2019-01-02T13:19:37.915Z,1030.17
2019-01-02T13:20:37.815Z,1030.19
2019-01-02T13:21:37.828Z,1030.22
2019-01-02T13:22:37.831Z,1030.24
2019-01-02T13:23:37.830Z,1030.26
2019-01-02T13:24:37.741Z,1030.26
2019-01-02T13:25:37.853Z,1030.23
2019-01-02T13:26:37.748Z,1030.26
2019-01-02T13:27:37.756Z,1030.26
2019-01-02T13:28:37.762Z,1030.24
2019-01-02T13:29:37.773Z,1030.21
2019-01-02T13:30:37.774Z,1030.26
2019-01-02T13:31:37.681Z,1030.28
2019-01-02T13:32:37.693Z,1030.23
2019-01-02T13:33:37.695Z,1030.31
2019-01-02T13:34:37.698Z,1030.34
2019-01-02T13:35:37.804Z,1030.27
2019-01-02T13:36:37.612Z,1030.30
2019-01-02T13:37:37.617Z,1030.36
2019-01-02T13:38:37.625Z,1030.30
2019-01-02T13:39:37.629Z,1030.33
2019-01-02T13:40:37.937Z,1030.33
2019-01-02T13:41:37.637Z,1030.35
2019-01-02T13:42:37.543Z,1030.36
2019-01-02T13:43:37.548Z,1030.36
2019-01-02T13:44:37.567Z,1030.42
2019-01-02T13:45:37.678Z,1030.39
2019-01-02T13:46:37.567Z,1030.37
2019-01-02T13:47:37.584Z,1030.38
2019-01-02T13:48:37.481Z,1030.40
2019-01-02T13:49:37.483Z,1030.36
2019-01-02T13:50:37.492Z,1030.42
2019-01-02T13:51:37.601Z,1030.36
2019-01-02T13:52:37.502Z,1030.37
2019-01-02T13:53:37.521Z,1030.38
2019-01-02T13:54:37.412Z,1030.42
2019-01-02T13:55:37.431Z,1030.39
2019-01-02T13:56:37.528Z,1030.39
2019-01-02T13:57:37.474Z,1030.35
2019-01-02T13:58:37.438Z,1030.40
2019-01-02T13:59:37.443Z,1030.52
2019-01-02T14:00:37.347Z,1030.53
2019-01-02T14:01:37.457Z,1030.51
2019-01-02T14:02:37.371Z,1030.50
2019-01-02T14:03:37.366Z,1030.57
2019-01-02T14:04:37.376Z,1030.56
2019-01-02T14:05:37.381Z,1030.53
2019-01-02T14:06:37.385Z,1030.55
2019-01-02T14:07:37.289Z,1030.56
2019-01-02T14:08:37.303Z,1030.53
2019-01-02T14:09:37.413Z,1030.52
2019-01-02T14:10:37.319Z,1030.60
2019-01-02T14:11:37.437Z,1030.59
2019-01-02T14:12:37.223Z,1030.59
2019-01-02T14:13:37.235Z,1030.57
2019-01-02T14:14:37.231Z,1030.50
2019-01-02T14:15:37.238Z,1030.61
2019-01-02T14:16:37.347Z,1030.59
2019-01-02T14:17:37.252Z,1030.56
2019-01-02T14:18:37.256Z,1030.55
2019-01-02T14:19:37.165Z,1030.62
2019-01-02T14:20:37.169Z,1030.62
2019-01-02T14:21:37.286Z,1030.65
2019-01-02T14:22:37.180Z,1030.70
2019-01-02T14:23:37.288Z,1030.74
2019-01-02T14:24:37.089Z,1030.80
2019-01-02T14:25:37.096Z,1030.79
2019-01-02T14:26:37.102Z,1030.73
2019-01-02T14:27:37.215Z,1030.78
2019-01-02T14:28:37.116Z,1030.79
2019-01-02T14:29:37.121Z,1030.76
2019-01-02T14:30:37.027Z,1030.73
2019-01-02T14:31:38.773Z,1030.83
2019-01-02T14:32:37.141Z,1030.82
2019-01-02T14:33:37.047Z,1030.84
2019-01-02T14:34:37.066Z,1030.84
2019-01-02T14:35:37.057Z,1030.84
2019-01-02T14:36:36.963Z,1030.78
2019-01-02T14:37:37.180Z,1030.85
2019-01-02T14:38:36.980Z,1030.82
2019-01-02T14:39:36.979Z,1030.87
2019-01-02T14:40:36.989Z,1030.85
2019-01-02T14:41:36.993Z,1030.90
2019-01-02T14:42:37.005Z,1030.89
2019-01-02T14:43:36.903Z,1030.84
2019-01-02T14:44:36.909Z,1030.86
2019-01-02T14:45:36.916Z,1030.93
2019-01-02T14:46:36.927Z,1030.95
2019-01-02T14:47:37.050Z,1030.97
2019-01-02T14:48:36.834Z,1031.02
2019-01-02T14:49:36.845Z,1031.01
2019-01-02T14:50:36.848Z,1031.04
2019-01-02T14:51:36.855Z,1031.01
2019-01-02T14:52:36.859Z,1031.03
2019-01-02T14:53:36.970Z,1031.04
2019-01-02T14:54:36.770Z,1031.03
2019-01-02T14:55:36.774Z,1030.98
2019-01-02T14:56:36.827Z,1031.00
2019-01-02T14:57:36.789Z,1031.06
2019-01-02T14:58:36.900Z,1031.03
2019-01-02T14:59:36.805Z,1031.07
2019-01-02T15:00:36.705Z,1031.10
2019-01-02T15:01:36.711Z,1031.10
2019-01-02T15:02:36.729Z,1031.08
2019-01-02T15:03:36.829Z,1031.11
2019-01-02T15:04:36.732Z,1031.14
2019-01-02T15:05:36.734Z,1031.14
2019-01-02T15:06:36.642Z,1031.05
2019-01-02T15:07:36.649Z,1031.09
2019-01-02T15:08:36.758Z,1031.11
2019-01-02T15:09:36.659Z,1031.14
2019-01-02T15:10:36.665Z,1031.11
2019-01-02T15:11:36.678Z,1031.08
2019-01-02T15:12:36.578Z,1031.10
2019-01-02T15:13:36.690Z,1031.09
2019-01-02T15:14:36.590Z,1031.13
2019-01-02T15:15:36.597Z,1031.09
2019-01-02T15:16:36.608Z,1031.12
2019-01-02T15:17:36.610Z,1031.13
2019-01-02T15:18:36.515Z,1031.09
2019-01-02T15:19:36.628Z,1031.19
2019-01-02T15:20:36.532Z,1031.20
2019-01-02T15:21:36.535Z,1031.20
2019-01-02T15:22:36.537Z,1031.27
2019-01-02T15:23:36.554Z,1031.26
2019-01-02T15:24:36.557Z,1031.25
2019-01-02T15:25:36.471Z,1031.24
2019-01-02T15:26:36.464Z,1031.29
2019-01-02T15:27:36.471Z,1031.30
2019-01-02T15:28:36.480Z,1031.30
2019-01-02T15:29:36.586Z,1031.29
2019-01-02T15:30:36.381Z,1031.35
2019-01-02T15:31:36.392Z,1031.33
2019-01-02T15:32:36.393Z,1031.36
2019-01-02T15:33:36.401Z,1031.36
2019-01-02T15:34:36.510Z,1031.36
2019-01-02T15:35:36.416Z,1031.36
2019-01-02T15:36:36.318Z,1031.37
2019-01-02T15:37:36.326Z,1031.37
2019-01-02T15:38:36.328Z,1031.37
2019-01-02T15:39:36.440Z,1031.37
2019-01-02T15:40:36.341Z,1031.37
2019-01-02T15:41:36.353Z,1031.39
2019-01-02T15:42:36.257Z,1031.38
2019-01-02T15:43:36.266Z,1031.39
2019-01-02T15:44:36.367Z,1031.45
2019-01-02T15:45:36.271Z,1031.48
2019-01-02T15:46:36.277Z,1031.46
2019-01-02T15:47:36.285Z,1031.51
2019-01-02T15:48:36.289Z,1031.47
2019-01-02T15:49:36.408Z,1031.49
2019-01-02T15:50:36.201Z,1031.49
2019-01-02T15:51:36.212Z,1031.46
2019-01-02T15:52:36.317Z,1031.48
2019-01-02T15:53:36.219Z,1031.47
2019-01-02T15:54:36.233Z,1031.50
2019-01-02T15:55:36.237Z,1031.52
2019-01-02T15:56:36.134Z,1031.59
2019-01-02T15:57:36.160Z,1031.52
2019-01-02T15:58:36.158Z,1031.52
2019-01-02T15:59:36.162Z,1031.55
2019-01-02T16:00:36.369Z,1031.58
2019-01-02T16:01:36.087Z,1031.63
2019-01-02T16:02:36.070Z,1031.58
2019-01-02T16:03:36.080Z,1031.67
2019-01-02T16:04:41.041Z,1031.64
2019-01-02T16:05:37.122Z,1031.69
2019-01-02T16:06:36.096Z,1031.72
2019-01-02T16:07:36.005Z,1031.73
2019-01-02T16:08:36.011Z,1031.75
2019-01-02T16:09:36.016Z,1031.80
2019-01-02T16:10:36.126Z,1031.81
2019-01-02T16:11:36.028Z,1031.83
2019-01-02T16:12:36.033Z,1031.82
2019-01-02T16:13:35.944Z,1031.86
2019-01-02T16:14:35.958Z,1031.88
2019-01-02T16:15:36.051Z,1031.94
2019-01-02T16:16:35.969Z,1031.89
2019-01-02T16:17:35.970Z,1031.89
2019-01-02T16:18:35.977Z,1031.97
2019-01-02T16:19:35.877Z,1031.92
2019-01-02T16:20:35.987Z,1031.93
2019-01-02T16:21:35.889Z,1031.91
2019-01-02T16:22:35.898Z,1031.91
2019-01-02T16:23:35.960Z,1031.95
2019-01-02T16:24:35.904Z,1031.96
2019-01-02T16:25:35.916Z,1031.94
2019-01-02T16:26:35.833Z,1032.00
2019-01-02T16:27:35.827Z,1032.02
2019-01-02T16:28:35.830Z,1031.99
2019-01-02T16:29:35.841Z,1032.00
2019-01-02T16:30:35.947Z,1031.96
2019-01-02T16:31:35.745Z,1032.01
2019-01-02T16:32:35.755Z,1032.01
2019-01-02T16:33:35.762Z,1032.08
2019-01-02T16:34:35.772Z,1031.98
2019-01-02T16:35:35.876Z,1032.01
2019-01-02T16:36:35.774Z,1032.09
2019-01-02T16:37:35.688Z,1032.04
2019-01-02T16:38:35.687Z,1032.03
2019-01-02T16:39:35.706Z,1032.04
2019-01-02T16:40:35.701Z,1032.01
2019-01-02T16:41:35.813Z,1031.99
2019-01-02T16:42:35.714Z,1032.00
2019-01-02T16:43:35.722Z,1032.01
2019-01-02T16:44:35.638Z,1032.05
2019-01-02T16:45:35.626Z,1032.04
2019-01-02T16:46:35.736Z,1032.08
2019-01-02T16:47:35.648Z,1032.10
2019-01-02T16:48:35.653Z,1032.12
2019-01-02T16:49:35.656Z,1032.14
2019-01-02T16:50:35.555Z,1032.13
2019-01-02T16:51:35.679Z,1032.15
2019-01-02T16:52:35.567Z,1032.17
2019-01-02T16:53:35.573Z,1032.19
2019-01-02T16:54:35.580Z,1032.17
2019-01-02T16:55:35.589Z,1032.13
2019-01-02T16:56:35.592Z,1032.15
2019-01-02T16:57:35.512Z,1032.16
2019-01-02T16:58:35.510Z,1032.18
2019-01-02T16:59:35.518Z,1032.16
2019-01-02T17:00:35.518Z,1032.20
2019-01-02T17:01:35.632Z,1032.22
2019-01-02T17:02:35.427Z,1032.26
2019-01-02T17:03:35.436Z,1032.21
2019-01-02T17:04:35.440Z,1032.27
2019-01-02T17:05:35.445Z,1032.29
2019-01-02T17:06:35.563Z,1032.27
2019-01-02T17:07:35.468Z,1032.25
2019-01-02T17:08:35.361Z,1032.27
2019-01-02T17:09:35.375Z,1032.26
2019-01-02T17:10:35.374Z,1032.34
2019-01-02T17:11:35.482Z,1032.26
2019-01-02T17:12:35.394Z,1032.31
2019-01-02T17:13:35.403Z,1032.25
2019-01-02T17:14:35.301Z,1032.26
2019-01-02T17:15:35.305Z,1032.23
2019-01-02T17:16:35.310Z,1032.24
2019-01-02T17:17:35.418Z,1032.26
2019-01-02T17:18:35.325Z,1032.28
2019-01-02T17:19:35.336Z,1032.30
2019-01-02T17:20:35.236Z,1032.23
2019-01-02T17:21:35.240Z,1032.25
2019-01-02T17:22:35.348Z,1032.24
2019-01-02T17:23:35.251Z,1032.27
2019-01-02T17:24:35.258Z,1032.27
2019-01-02T17:25:35.283Z,1032.28
2019-01-02T17:26:35.175Z,1032.27
2019-01-02T17:27:35.279Z,1032.31
2019-01-02T17:28:35.193Z,1032.27
2019-01-02T17:29:35.190Z,1032.33
2019-01-02T17:30:35.198Z,1032.34
2019-01-02T17:31:35.202Z,1032.39
2019-01-02T17:32:35.206Z,1032.31
2019-01-02T17:33:35.109Z,1032.28
2019-01-02T17:34:35.116Z,1032.30
2019-01-02T17:35:35.122Z,1032.32
2019-01-02T17:36:35.129Z,1032.29
2019-01-02T17:37:35.252Z,1032.24
2019-01-02T17:38:35.040Z,1032.37
2019-01-02T17:39:35.049Z,1032.31
2019-01-02T17:40:35.055Z,1032.34
2019-01-02T17:41:35.073Z,1032.37
2019-01-02T17:42:35.167Z,1032.42
2019-01-02T17:43:35.073Z,1032.37
2019-01-02T17:44:34.982Z,1032.39
2019-01-02T17:45:34.986Z,1032.48
2019-01-02T17:46:34.987Z,1032.48
2019-01-02T17:47:35.003Z,1032.47
2019-01-02T17:48:35.103Z,1032.50
2019-01-02T17:49:35.007Z,1032.47
2019-01-02T17:50:34.911Z,1032.52
2019-01-02T17:51:34.931Z,1032.55
2019-01-02T17:52:34.926Z,1032.54
2019-01-02T17:53:35.033Z,1032.59
2019-01-02T17:54:34.939Z,1032.57
2019-01-02T17:55:34.949Z,1032.60
2019-01-02T17:56:34.848Z,1032.57
2019-01-02T17:57:34.864Z,1032.62
2019-01-02T17:58:34.967Z,1032.58
2019-01-02T17:59:34.869Z,1032.60
2019-01-02T18:00:34.879Z,1032.58
2019-01-02T18:01:34.881Z,1032.62
2019-01-02T18:02:34.785Z,1032.58
2019-01-02T18:03:34.894Z,1032.58
2019-01-02T18:04:34.801Z,1032.60
2019-01-02T18:05:34.803Z,1032.54
2019-01-02T18:06:34.815Z,1032.61
2019-01-02T18:07:34.826Z,1032.61
2019-01-02T18:08:34.828Z,1032.57
2019-01-02T18:09:34.726Z,1032.59
2019-01-02T18:10:34.740Z,1032.60
2019-01-02T18:11:34.737Z,1032.57
2019-01-02T18:12:34.742Z,1032.61
2019-01-02T18:13:34.856Z,1032.62
2019-01-02T18:14:34.660Z,1032.69
2019-01-02T18:15:34.670Z,1032.62
2019-01-02T18:16:34.670Z,1032.64
2019-01-02T18:17:34.674Z,1032.67
2019-01-02T18:18:34.686Z,1032.73
2019-01-02T18:19:34.798Z,1032.72
2019-01-02T18:20:34.594Z,1032.69
2019-01-02T18:21:34.597Z,1032.78
2019-01-02T18:22:34.606Z,1032.75
2019-01-02T18:23:34.607Z,1032.77
2019-01-02T18:24:34.725Z,1032.77
2019-01-02T18:25:34.620Z,1032.80
2019-01-02T18:26:34.628Z,1032.78
2019-01-02T18:27:34.536Z,1032.79
2019-01-02T18:28:34.641Z,1032.79
2019-01-02T18:29:35.157Z,1032.83
2019-01-02T18:44:44.821Z,1032.86
2019-01-02T18:45:23.811Z,1032.86
2019-01-02T18:46:23.778Z,1032.84
2019-01-02T18:47:23.778Z,1032.79
2019-01-02T18:48:23.755Z,1032.84
2019-01-02T18:49:23.766Z,1032.88
2019-01-02T18:50:23.740Z,1032.77
2019-01-02T18:51:23.738Z,1032.78
2019-01-02T18:52:23.714Z,1032.85
2019-01-02T18:53:23.705Z,1032.83
2019-01-02T18:54:23.733Z,1032.83
2019-01-02T18:55:23.684Z,1032.84
2019-01-02T18:56:23.673Z,1032.84
2019-01-02T18:57:23.660Z,1032.85
2019-01-02T18:58:23.654Z,1032.87
2019-01-02T18:59:23.643Z,1032.85
2019-01-02T19:00:23.648Z,1032.89
2019-01-02T19:01:23.625Z,1032.89
2019-01-02T19:02:23.617Z,1032.86
2019-01-02T19:03:23.597Z,1032.87
2019-01-02T19:04:23.589Z,1032.89
2019-01-02T19:05:23.611Z,1032.90
2019-01-02T19:06:23.583Z,1032.91
2019-01-02T19:07:23.557Z,1032.91
2019-01-02T19:08:23.545Z,1032.91
2019-01-02T19:09:23.541Z,1032.92
2019-01-02T19:10:23.540Z,1032.92
2019-01-02T19:11:23.512Z,1032.93
2019-01-02T19:12:23.530Z,1032.92
2019-01-02T19:13:23.513Z,1032.96
2019-01-02T19:14:23.481Z,1032.95
2019-01-02T19:15:23.507Z,1033.02
2019-01-02T19:16:23.465Z,1033.06
2019-01-02T19:17:23.450Z,1032.98
2019-01-02T19:18:23.456Z,1033.05
2019-01-02T19:19:23.449Z,1033.11
2019-01-02T19:20:23.442Z,1033.08
2019-01-02T19:21:23.408Z,1033.10
2019-01-02T19:22:23.416Z,1033.08
2019-01-02T19:23:23.427Z,1033.08
2019-01-02T19:24:23.379Z,1033.13
2019-01-02T19:25:23.425Z,1033.12
2019-01-02T19:26:23.367Z,1033.12
2019-01-02T19:27:23.367Z,1033.12
2019-01-02T19:29:39.023Z,1033.13
2019-01-02T19:30:39.042Z,1033.09
2019-01-02T19:31:39.014Z,1033.12
2019-01-02T19:32:38.998Z,1033.13
2019-01-02T19:33:38.989Z,1033.13
2019-01-02T19:34:39.019Z,1033.15
2019-01-02T19:35:39.007Z,1033.11
2019-01-02T19:36:38.948Z,1033.15
2019-01-02T19:37:38.970Z,1033.16
2019-01-02T19:38:38.967Z,1033.13
2019-01-02T19:39:38.913Z,1033.12
2019-01-02T19:40:38.937Z,1033.10
2019-01-02T19:41:38.906Z,1033.13
2019-01-02T19:42:38.915Z,1033.14
2019-01-02T19:43:38.924Z,1033.20
2019-01-02T19:44:38.904Z,1033.21
2019-01-02T19:45:38.905Z,1033.24
2019-01-02T19:46:38.839Z,1033.18
2019-01-02T19:47:38.860Z,1033.17
2019-01-02T19:48:39.473Z,1033.18
2019-01-02T19:49:38.823Z,1033.22
2019-01-02T19:50:38.835Z,1033.19
2019-01-02T19:51:38.800Z,1033.21
2019-01-02T19:52:38.802Z,1033.17
2019-01-02T19:53:38.776Z,1033.15
2019-01-02T19:54:38.752Z,1033.14
2019-01-02T19:55:38.806Z,1033.18
2019-01-02T19:56:38.780Z,1033.19
2019-01-02T19:57:38.724Z,1033.20
2019-01-02T19:58:38.720Z,1033.18
2019-01-02T19:59:38.707Z,1033.21
2019-01-02T20:00:38.753Z,1033.15
2019-01-02T20:01:38.691Z,1033.20
2019-01-02T20:02:38.672Z,1033.22